Time;durP1;ratioP1;P1;durP2;ratioP2;P2;SDS_P1;SDS_P2;PMS_P1;PMS_P2;Temp;Humidity;BMP_temperature;BMP_pressure;BME280_temperature;BME280_humidity;BME280_pressure;Samples;Min_cycle;Max_cycle;Signal;HPM_P1;HPM_P2
2022/03/20 00:00:00;;;;;;;6.6;5.2;;;;;;;6.4;100.0;103090;;;;
2022/03/20 00:01:02;;;;;;;7.1;6.3;;;;;;;6.4;100.0;103080;;;;
2022/03/20 00:02:00;;;;;;;7.1;6.3;;;;;;;6.4;100.0;103080;;;;
2022/03/20 00:03:07;;;;;;;7.1;6.3;;;;;;;6.3;100.0;103080;;;;
2022/03/20 00:04:00;;;;;;;7.1;6.3;;;;;;;6.3;100.0;103080;;;;
2022/03/20 00:05:02;;;;;;;7.1;6.3;;;;;;;6.3;100.0;103070;;;;
2022/03/20 00:06:00;;;;;;;7.1;6.3;;;;;;;6.3;100.0;103070;;;;
2022/03/20 00:07:00;;;;;;;7.1;6.3;;;;;;;6.3;100.0;103070;;;;
2022/03/20 00:08:00;;;;;;;7.1;6.3;;;;;;;6.3;100.0;103070;;;;
2022/03/20 00:09:00;;;;;;;7.1;6.3;;;;;;;6.3;100.0;103070;;;;
2022/03/20 00:10:00;;;;;;;7.1;6.3;;;;;;;6.3;100.0;103070;;;;
2022/03/20 00:11:01;;;;;;;7.1;6.3;;;;;;;6.3;100.0;103070;;;;
2022/03/20 00:12:00;;;;;;;7.1;6.3;;;;;;;6.3;100.0;103070;;;;
2022/03/20 00:13:01;;;;;;;7.1;6.3;;;;;;;6.3;100.0;103070;;;;
2022/03/20 00:14:00;;;;;;;7.1;6.3;;;;;;;6.3;100.0;103070;;;;
2022/03/20 00:15:00;;;;;;;7.1;6.3;;;;;;;6.2;100.0;103060;;;;
2022/03/20 00:16:00;;;;;;;7.1;6.3;;;;;;;6.2;100.0;103060;;;;
2022/03/20 00:17:00;;;;;;;7.1;6.3;;;;;;;6.2;100.0;103060;;;;
2022/03/20 00:18:00;;;;;;;7.1;6.3;;;;;;;6.2;100.0;103060;;;;
2022/03/20 00:19:00;;;;;;;7.1;6.3;;;;;;;6.1;100.0;103060;;;;
2022/03/20 00:20:00;;;;;;;7.1;6.3;;;;;;;6.1;100.0;103060;;;;
2022/03/20 00:21:00;;;;;;;7.2;6.5;;;;;;;6.1;100.0;103060;;;;
2022/03/20 00:22:00;;;;;;;7.2;6.5;;;;;;;6.1;100.0;103060;;;;
2022/03/20 00:23:01;;;;;;;7.2;6.5;;;;;;;6.0;100.0;103060;;;;
2022/03/20 00:24:01;;;;;;;7.2;6.5;;;;;;;6.0;100.0;103060;;;;
2022/03/20 00:25:00;;;;;;;7.2;6.5;;;;;;;6.0;100.0;103060;;;;
2022/03/20 00:26:00;;;;;;;7.2;6.5;;;;;;;6.0;100.0;103060;;;;
2022/03/20 00:27:00;;;;;;;7.2;6.5;;;;;;;5.8;100.0;103050;;;;
2022/03/20 00:28:00;;;;;;;7.2;6.5;;;;;;;5.8;100.0;103050;;;;
2022/03/20 00:29:00;;;;;;;7.2;6.5;;;;;;;5.8;100.0;103040;;;;
2022/03/20 00:30:00;;;;;;;7.2;6.5;;;;;;;5.8;100.0;103040;;;;
2022/03/20 00:31:00;;;;;;;7.2;6.5;;;;;;;5.8;100.0;103040;;;;
2022/03/20 00:32:00;;;;;;;7.2;6.5;;;;;;;5.8;100.0;103040;;;;
2022/03/20 00:33:00;;;;;;;7.2;6.5;;;;;;;5.8;100.0;103040;;;;
2022/03/20 00:34:00;;;;;;;7.2;6.5;;;;;;;5.8;100.0;103040;;;;
2022/03/20 00:35:00;;;;;;;7.2;6.5;;;;;;;5.7;100.0;103040;;;;
2022/03/20 00:36:00;;;;;;;7.2;6.5;;;;;;;5.7;100.0;103040;;;;
2022/03/20 00:37:00;;;;;;;7.2;6.5;;;;;;;5.7;100.0;103030;;;;
2022/03/20 00:38:00;;;;;;;7.2;6.5;;;;;;;5.7;100.0;103030;;;;
2022/03/20 00:39:00;;;;;;;7.2;6.5;;;;;;;5.7;100.0;103030;;;;
2022/03/20 00:40:00;;;;;;;7.2;6.5;;;;;;;5.7;100.0;103030;;;;
2022/03/20 00:41:00;;;;;;;7.4;6.4;;;;;;;5.7;100.0;103030;;;;
2022/03/20 00:42:00;;;;;;;7.4;6.4;;;;;;;5.7;100.0;103030;;;;
2022/03/20 00:43:00;;;;;;;7.4;6.4;;;;;;;5.6;100.0;103020;;;;
2022/03/20 00:44:00;;;;;;;7.4;6.4;;;;;;;5.6;100.0;103020;;;;
2022/03/20 00:45:00;;;;;;;7.4;6.4;;;;;;;5.7;100.0;103020;;;;
2022/03/20 00:46:00;;;;;;;7.4;6.4;;;;;;;5.7;100.0;103020;;;;
2022/03/20 00:47:00;;;;;;;7.4;6.4;;;;;;;5.7;100.0;103020;;;;
2022/03/20 00:48:00;;;;;;;7.4;6.4;;;;;;;5.7;100.0;103020;;;;
2022/03/20 00:49:00;;;;;;;7.4;6.4;;;;;;;5.7;100.0;103020;;;;
2022/03/20 00:50:00;;;;;;;7.4;6.4;;;;;;;5.7;100.0;103020;;;;
2022/03/20 00:51:03;;;;;;;7.4;6.4;;;;;;;5.7;100.0;103010;;;;
2022/03/20 00:52:00;;;;;;;7.4;6.4;;;;;;;5.7;100.0;103010;;;;
2022/03/20 00:53:00;;;;;;;7.4;6.4;;;;;;;5.5;100.0;103010;;;;
2022/03/20 00:54:00;;;;;;;7.4;6.4;;;;;;;5.5;100.0;103010;;;;
2022/03/20 00:55:00;;;;;;;7.4;6.4;;;;;;;5.5;100.0;103000;;;;
2022/03/20 00:56:00;;;;;;;7.4;6.4;;;;;;;5.5;100.0;103000;;;;
2022/03/20 00:57:00;;;;;;;7.4;6.4;;;;;;;5.4;100.0;103000;;;;
2022/03/20 00:58:00;;;;;;;7.4;6.4;;;;;;;5.4;100.0;103000;;;;
2022/03/20 00:59:00;;;;;;;7.4;6.4;;;;;;;5.5;100.0;103000;;;;
2022/03/20 01:00:00;;;;;;;7.4;6.4;;;;;;;5.5;100.0;103000;;;;
2022/03/20 01:01:00;;;;;;;8.3;7.5;;;;;;;5.5;100.0;103000;;;;
2022/03/20 01:02:00;;;;;;;8.3;7.5;;;;;;;5.5;100.0;103000;;;;
2022/03/20 01:03:00;;;;;;;8.3;7.5;;;;;;;5.5;100.0;102990;;;;
2022/03/20 01:04:00;;;;;;;8.3;7.5;;;;;;;5.5;100.0;102990;;;;
2022/03/20 01:05:00;;;;;;;8.3;7.5;;;;;;;5.4;100.0;102990;;;;
2022/03/20 01:06:00;;;;;;;8.3;7.5;;;;;;;5.4;100.0;102990;;;;
2022/03/20 01:07:01;;;;;;;8.3;7.5;;;;;;;5.3;100.0;102990;;;;
2022/03/20 01:08:00;;;;;;;8.3;7.5;;;;;;;5.3;100.0;102990;;;;
2022/03/20 01:09:00;;;;;;;8.3;7.5;;;;;;;5.2;100.0;102990;;;;
2022/03/20 01:10:01;;;;;;;8.3;7.5;;;;;;;5.2;100.0;102990;;;;
2022/03/20 01:11:00;;;;;;;8.3;7.5;;;;;;;5.1;100.0;102990;;;;
2022/03/20 01:12:01;;;;;;;8.3;7.5;;;;;;;5.1;100.0;102990;;;;
2022/03/20 01:13:00;;;;;;;8.3;7.5;;;;;;;5.1;100.0;102990;;;;
2022/03/20 01:14:00;;;;;;;8.3;7.5;;;;;;;5.1;100.0;102990;;;;
2022/03/20 01:15:01;;;;;;;8.3;7.5;;;;;;;5.1;100.0;102990;;;;
2022/03/20 01:16:00;;;;;;;8.3;7.5;;;;;;;5.1;100.0;102990;;;;
2022/03/20 01:17:00;;;;;;;8.3;7.5;;;;;;;5.2;100.0;102990;;;;
2022/03/20 01:18:00;;;;;;;8.3;7.5;;;;;;;5.2;100.0;102990;;;;
2022/03/20 01:19:00;;;;;;;8.3;7.5;;;;;;;5.1;100.0;102980;;;;
2022/03/20 01:20:00;;;;;;;8.3;7.5;;;;;;;5.1;100.0;102980;;;;
2022/03/20 01:21:00;;;;;;;13.1;10.9;;;;;;;5.1;100.0;102980;;;;
2022/03/20 01:22:00;;;;;;;13.1;10.9;;;;;;;5.1;100.0;102980;;;;
2022/03/20 01:23:00;;;;;;;13.1;10.9;;;;;;;5.1;100.0;102980;;;;
2022/03/20 01:24:00;;;;;;;13.1;10.9;;;;;;;5.1;100.0;102980;;;;
2022/03/20 01:25:00;;;;;;;13.1;10.9;;;;;;;5.1;100.0;102970;;;;
2022/03/20 01:26:00;;;;;;;13.1;10.9;;;;;;;5.1;100.0;102970;;;;
2022/03/20 01:27:00;;;;;;;13.1;10.9;;;;;;;5.1;100.0;102970;;;;
2022/03/20 01:28:00;;;;;;;13.1;10.9;;;;;;;5.1;100.0;102970;;;;
2022/03/20 01:29:00;;;;;;;13.1;10.9;;;;;;;5.0;100.0;102960;;;;
2022/03/20 01:30:00;;;;;;;13.1;10.9;;;;;;;5.0;100.0;102960;;;;
2022/03/20 01:31:00;;;;;;;13.1;10.9;;;;;;;5.0;100.0;102950;;;;
2022/03/20 01:32:00;;;;;;;13.1;10.9;;;;;;;5.0;100.0;102950;;;;
2022/03/20 01:33:00;;;;;;;13.1;10.9;;;;;;;5.1;100.0;102960;;;;
2022/03/20 01:34:00;;;;;;;13.1;10.9;;;;;;;5.1;100.0;102960;;;;
2022/03/20 01:35:00;;;;;;;13.1;10.9;;;;;;;5.0;100.0;102950;;;;
2022/03/20 01:36:00;;;;;;;13.1;10.9;;;;;;;5.0;100.0;102950;;;;
2022/03/20 01:37:00;;;;;;;13.1;10.9;;;;;;;5.0;100.0;102950;;;;
2022/03/20 01:38:00;;;;;;;13.1;10.9;;;;;;;5.0;100.0;102950;;;;
2022/03/20 01:39:00;;;;;;;13.1;10.9;;;;;;;5.0;100.0;102950;;;;
2022/03/20 01:40:00;;;;;;;13.1;10.9;;;;;;;5.0;100.0;102950;;;;
2022/03/20 01:41:00;;;;;;;14.8;13.2;;;;;;;5.1;100.0;102950;;;;
2022/03/20 01:42:00;;;;;;;14.8;13.2;;;;;;;5.1;100.0;102950;;;;
2022/03/20 01:43:00;;;;;;;14.8;13.2;;;;;;;5.0;100.0;102940;;;;
2022/03/20 01:44:01;;;;;;;14.8;13.2;;;;;;;5.0;100.0;102940;;;;
2022/03/20 01:45:00;;;;;;;14.8;13.2;;;;;;;5.0;100.0;102930;;;;
2022/03/20 01:46:00;;;;;;;14.8;13.2;;;;;;;5.0;100.0;102930;;;;
2022/03/20 01:47:00;;;;;;;14.8;13.2;;;;;;;4.8;100.0;102930;;;;
2022/03/20 01:48:00;;;;;;;14.8;13.2;;;;;;;4.8;100.0;102930;;;;
2022/03/20 01:49:00;;;;;;;14.8;13.2;;;;;;;4.9;100.0;102930;;;;
2022/03/20 01:50:00;;;;;;;14.8;13.2;;;;;;;4.9;100.0;102930;;;;
2022/03/20 01:51:00;;;;;;;14.8;13.2;;;;;;;4.8;100.0;102930;;;;
2022/03/20 01:53:00;;;;;;;14.8;13.2;;;;;;;4.9;100.0;102920;;;;
2022/03/20 01:54:00;;;;;;;14.8;13.2;;;;;;;4.9;100.0;102920;;;;
2022/03/20 01:55:01;;;;;;;14.8;13.2;;;;;;;4.9;100.0;102920;;;;
2022/03/20 01:56:00;;;;;;;14.8;13.2;;;;;;;4.9;100.0;102920;;;;
2022/03/20 01:57:00;;;;;;;14.8;13.2;;;;;;;4.8;100.0;102920;;;;
2022/03/20 01:58:00;;;;;;;14.8;13.2;;;;;;;4.8;100.0;102920;;;;
2022/03/20 01:59:03;;;;;;;14.8;13.2;;;;;;;4.8;100.0;102910;;;;
2022/03/20 02:00:00;;;;;;;14.8;13.2;;;;;;;4.8;100.0;102910;;;;
2022/03/20 02:01:01;;;;;;;16.2;14.5;;;;;;;4.8;100.0;102910;;;;
2022/03/20 02:02:02;;;;;;;16.2;14.5;;;;;;;4.8;100.0;102910;;;;
2022/03/20 02:03:00;;;;;;;16.2;14.5;;;;;;;4.8;100.0;102910;;;;
2022/03/20 02:04:00;;;;;;;16.2;14.5;;;;;;;4.8;100.0;102910;;;;
2022/03/20 02:05:01;;;;;;;16.2;14.5;;;;;;;4.8;100.0;102910;;;;
2022/03/20 02:06:00;;;;;;;16.2;14.5;;;;;;;4.8;100.0;102910;;;;
2022/03/20 02:07:00;;;;;;;16.2;14.5;;;;;;;4.8;100.0;102910;;;;
2022/03/20 02:08:00;;;;;;;16.2;14.5;;;;;;;4.8;100.0;102910;;;;
2022/03/20 02:09:00;;;;;;;16.2;14.5;;;;;;;4.8;100.0;102910;;;;
2022/03/20 02:10:01;;;;;;;16.2;14.5;;;;;;;4.8;100.0;102910;;;;
2022/03/20 02:11:00;;;;;;;16.2;14.5;;;;;;;4.7;100.0;102900;;;;
2022/03/20 02:12:00;;;;;;;16.2;14.5;;;;;;;4.7;100.0;102900;;;;
2022/03/20 02:13:00;;;;;;;16.2;14.5;;;;;;;4.6;100.0;102900;;;;
2022/03/20 02:14:00;;;;;;;16.2;14.5;;;;;;;4.6;100.0;102900;;;;
2022/03/20 02:15:01;;;;;;;16.2;14.5;;;;;;;4.5;100.0;102890;;;;
2022/03/20 02:16:00;;;;;;;16.2;14.5;;;;;;;4.5;100.0;102890;;;;
2022/03/20 02:17:01;;;;;;;16.2;14.5;;;;;;;4.5;100.0;102890;;;;
2022/03/20 02:18:00;;;;;;;16.2;14.5;;;;;;;4.5;100.0;102890;;;;
2022/03/20 02:19:00;;;;;;;16.2;14.5;;;;;;;4.5;100.0;102890;;;;
2022/03/20 02:20:03;;;;;;;16.2;14.5;;;;;;;4.5;100.0;102890;;;;
2022/03/20 02:21:01;;;;;;;16.3;14.6;;;;;;;4.6;100.0;102890;;;;
2022/03/20 02:22:00;;;;;;;16.3;14.6;;;;;;;4.6;100.0;102890;;;;
2022/03/20 02:23:00;;;;;;;16.3;14.6;;;;;;;4.6;100.0;102880;;;;
2022/03/20 02:24:01;;;;;;;16.3;14.6;;;;;;;4.6;100.0;102880;;;;
2022/03/20 02:25:04;;;;;;;16.3;14.6;;;;;;;4.5;100.0;102880;;;;
2022/03/20 02:26:00;;;;;;;16.3;14.6;;;;;;;4.5;100.0;102880;;;;
2022/03/20 02:27:04;;;;;;;16.3;14.6;;;;;;;4.5;100.0;102880;;;;
2022/03/20 02:28:00;;;;;;;16.3;14.6;;;;;;;4.5;100.0;102880;;;;
2022/03/20 02:29:00;;;;;;;16.3;14.6;;;;;;;4.5;100.0;102880;;;;
2022/03/20 02:30:02;;;;;;;16.3;14.6;;;;;;;4.5;100.0;102880;;;;
2022/03/20 02:31:00;;;;;;;16.3;14.6;;;;;;;4.5;100.0;102880;;;;
2022/03/20 02:32:00;;;;;;;16.3;14.6;;;;;;;4.5;100.0;102880;;;;
2022/03/20 02:33:00;;;;;;;16.3;14.6;;;;;;;4.5;100.0;102870;;;;
2022/03/20 02:34:00;;;;;;;16.3;14.6;;;;;;;4.5;100.0;102870;;;;
2022/03/20 02:35:01;;;;;;;16.3;14.6;;;;;;;4.4;100.0;102880;;;;
2022/03/20 02:36:06;;;;;;;16.3;14.6;;;;;;;4.4;100.0;102880;;;;
2022/03/20 02:37:01;;;;;;;16.3;14.6;;;;;;;4.4;100.0;102870;;;;
2022/03/20 02:38:00;;;;;;;16.3;14.6;;;;;;;4.4;100.0;102870;;;;
2022/03/20 02:39:00;;;;;;;16.3;14.6;;;;;;;4.4;100.0;102860;;;;
2022/03/20 02:40:01;;;;;;;16.3;14.6;;;;;;;4.4;100.0;102860;;;;
2022/03/20 02:41:14;;;;;;;19.7;16.8;;;;;;;4.3;100.0;102870;;;;
2022/03/20 02:42:01;;;;;;;19.7;16.8;;;;;;;4.3;100.0;102870;;;;
2022/03/20 02:43:01;;;;;;;19.7;16.8;;;;;;;4.3;100.0;102860;;;;
2022/03/20 02:44:02;;;;;;;19.7;16.8;;;;;;;4.3;100.0;102860;;;;
2022/03/20 02:45:03;;;;;;;19.7;16.8;;;;;;;4.3;100.0;102860;;;;
2022/03/20 02:46:00;;;;;;;19.7;16.8;;;;;;;4.3;100.0;102860;;;;
2022/03/20 02:47:02;;;;;;;19.7;16.8;;;;;;;4.3;100.0;102860;;;;
2022/03/20 02:48:01;;;;;;;19.7;16.8;;;;;;;4.3;100.0;102860;;;;
2022/03/20 02:49:00;;;;;;;19.7;16.8;;;;;;;4.4;100.0;102850;;;;
2022/03/20 02:50:04;;;;;;;19.7;16.8;;;;;;;4.4;100.0;102850;;;;
2022/03/20 02:51:00;;;;;;;19.7;16.8;;;;;;;4.3;100.0;102850;;;;
2022/03/20 02:52:00;;;;;;;19.7;16.8;;;;;;;4.3;100.0;102850;;;;
2022/03/20 02:53:02;;;;;;;19.7;16.8;;;;;;;4.1;100.0;102850;;;;
2022/03/20 02:54:00;;;;;;;19.7;16.8;;;;;;;4.1;100.0;102850;;;;
2022/03/20 02:55:01;;;;;;;19.7;16.8;;;;;;;4.2;100.0;102850;;;;
2022/03/20 02:56:00;;;;;;;19.7;16.8;;;;;;;4.2;100.0;102850;;;;
2022/03/20 02:57:04;;;;;;;19.7;16.8;;;;;;;4.2;100.0;102840;;;;
2022/03/20 02:58:01;;;;;;;19.7;16.8;;;;;;;4.2;100.0;102840;;;;
2022/03/20 02:59:00;;;;;;;19.7;16.8;;;;;;;4.1;100.0;102840;;;;
2022/03/20 03:00:03;;;;;;;19.6;17.6;;;;;;;4.1;100.0;102840;;;;
2022/03/20 03:01:00;;;;;;;19.6;17.6;;;;;;;4.1;100.0;102840;;;;
2022/03/20 03:02:01;;;;;;;19.6;17.6;;;;;;;4.1;100.0;102840;;;;
2022/03/20 03:03:01;;;;;;;19.6;17.6;;;;;;;4.0;100.0;102840;;;;
2022/03/20 03:04:00;;;;;;;19.6;17.6;;;;;;;4.0;100.0;102840;;;;
2022/03/20 03:05:00;;;;;;;19.6;17.6;;;;;;;4.0;100.0;102830;;;;
2022/03/20 03:06:06;;;;;;;19.6;17.6;;;;;;;4.0;100.0;102830;;;;
2022/03/20 03:07:02;;;;;;;19.6;17.6;;;;;;;4.0;100.0;102830;;;;
2022/03/20 03:11:00;;;;;;;19.6;17.6;;;;;;;4.0;100.0;102820;;;;
2022/03/20 03:12:00;;;;;;;19.6;17.6;;;;;;;4.0;100.0;102820;;;;
2022/03/20 03:13:00;;;;;;;19.6;17.6;;;;;;;4.0;100.0;102820;;;;
2022/03/20 03:15:18;;;;;;;19.6;17.6;;;;;;;4.0;100.0;102820;;;;
2022/03/20 03:16:02;;;;;;;19.6;17.6;;;;;;;4.0;100.0;102820;;;;
2022/03/20 03:17:00;;;;;;;19.6;17.6;;;;;;;3.9;100.0;102820;;;;
2022/03/20 03:18:00;;;;;;;19.6;17.6;;;;;;;3.9;100.0;102820;;;;
2022/03/20 03:19:00;;;;;;;19.6;17.6;;;;;;;3.8;100.0;102820;;;;
2022/03/20 03:20:00;;;;;;;21.4;19.2;;;;;;;3.8;100.0;102820;;;;
2022/03/20 03:21:00;;;;;;;21.4;19.2;;;;;;;3.8;100.0;102810;;;;
2022/03/20 03:22:01;;;;;;;21.4;19.2;;;;;;;3.8;100.0;102810;;;;
2022/03/20 03:23:00;;;;;;;21.4;19.2;;;;;;;3.8;100.0;102810;;;;
2022/03/20 03:24:00;;;;;;;21.4;19.2;;;;;;;3.8;100.0;102810;;;;
2022/03/20 03:25:00;;;;;;;21.4;19.2;;;;;;;3.8;100.0;102810;;;;
2022/03/20 03:26:00;;;;;;;21.4;19.2;;;;;;;3.8;100.0;102810;;;;
2022/03/20 03:27:00;;;;;;;21.4;19.2;;;;;;;3.9;100.0;102810;;;;
2022/03/20 03:28:00;;;;;;;21.4;19.2;;;;;;;3.9;100.0;102810;;;;
2022/03/20 03:29:00;;;;;;;21.4;19.2;;;;;;;3.8;100.0;102800;;;;
2022/03/20 03:30:00;;;;;;;21.4;19.2;;;;;;;3.8;100.0;102800;;;;
2022/03/20 03:31:01;;;;;;;21.4;19.2;;;;;;;3.8;100.0;102810;;;;
2022/03/20 03:32:00;;;;;;;21.4;19.2;;;;;;;3.8;100.0;102810;;;;
2022/03/20 03:33:00;;;;;;;21.4;19.2;;;;;;;3.8;100.0;102810;;;;
2022/03/20 03:36:01;;;;;;;21.4;19.2;;;;;;;3.7;100.0;102810;;;;
2022/03/20 03:37:00;;;;;;;21.4;19.2;;;;;;;3.7;100.0;102800;;;;
2022/03/20 03:38:00;;;;;;;21.4;19.2;;;;;;;3.7;100.0;102800;;;;
2022/03/20 03:39:00;;;;;;;21.4;19.2;;;;;;;3.7;100.0;102800;;;;
2022/03/20 03:40:02;;;;;;;23.3;20.2;;;;;;;3.7;100.0;102800;;;;
2022/03/20 03:41:00;;;;;;;23.3;20.2;;;;;;;3.7;100.0;102790;;;;
2022/03/20 03:42:00;;;;;;;23.3;20.2;;;;;;;3.7;100.0;102790;;;;
2022/03/20 03:43:00;;;;;;;23.3;20.2;;;;;;;3.6;100.0;102790;;;;
2022/03/20 03:44:00;;;;;;;23.3;20.2;;;;;;;3.6;100.0;102790;;;;
2022/03/20 03:45:01;;;;;;;23.3;20.2;;;;;;;3.5;100.0;102780;;;;
2022/03/20 03:46:00;;;;;;;23.3;20.2;;;;;;;3.5;100.0;102780;;;;
2022/03/20 03:47:00;;;;;;;23.3;20.2;;;;;;;3.6;100.0;102780;;;;
2022/03/20 03:48:00;;;;;;;23.3;20.2;;;;;;;3.6;100.0;102780;;;;
2022/03/20 03:49:00;;;;;;;23.3;20.2;;;;;;;3.6;100.0;102780;;;;
2022/03/20 03:50:00;;;;;;;23.3;20.2;;;;;;;3.6;100.0;102780;;;;
2022/03/20 03:51:00;;;;;;;23.3;20.2;;;;;;;3.5;100.0;102770;;;;
2022/03/20 03:52:00;;;;;;;23.3;20.2;;;;;;;3.5;100.0;102770;;;;
2022/03/20 03:53:00;;;;;;;23.3;20.2;;;;;;;3.5;100.0;102770;;;;
2022/03/20 03:54:00;;;;;;;23.3;20.2;;;;;;;3.5;100.0;102770;;;;
2022/03/20 03:55:00;;;;;;;23.3;20.2;;;;;;;3.4;100.0;102770;;;;
2022/03/20 03:56:00;;;;;;;23.3;20.2;;;;;;;3.4;100.0;102770;;;;
2022/03/20 03:57:00;;;;;;;23.3;20.2;;;;;;;3.4;100.0;102760;;;;
2022/03/20 03:58:00;;;;;;;23.3;20.2;;;;;;;3.4;100.0;102760;;;;
2022/03/20 03:59:00;;;;;;;23.3;20.2;;;;;;;3.4;100.0;102750;;;;
2022/03/20 04:00:00;;;;;;;23.5;19.3;;;;;;;3.4;100.0;102750;;;;
2022/03/20 04:01:00;;;;;;;23.5;19.3;;;;;;;3.3;100.0;102760;;;;
2022/03/20 04:02:00;;;;;;;23.5;19.3;;;;;;;3.3;100.0;102760;;;;
2022/03/20 04:03:01;;;;;;;23.5;19.3;;;;;;;3.4;100.0;102750;;;;
2022/03/20 04:04:00;;;;;;;23.5;19.3;;;;;;;3.4;100.0;102750;;;;
2022/03/20 04:05:00;;;;;;;23.5;19.3;;;;;;;3.5;100.0;102760;;;;
2022/03/20 04:06:04;;;;;;;23.5;19.3;;;;;;;3.5;100.0;102760;;;;
2022/03/20 04:07:00;;;;;;;23.5;19.3;;;;;;;3.5;100.0;102750;;;;
2022/03/20 04:08:00;;;;;;;23.5;19.3;;;;;;;3.5;100.0;102750;;;;
2022/03/20 04:09:00;;;;;;;23.5;19.3;;;;;;;3.4;100.0;102760;;;;
2022/03/20 04:10:01;;;;;;;23.5;19.3;;;;;;;3.4;100.0;102760;;;;
2022/03/20 04:11:00;;;;;;;23.5;19.3;;;;;;;3.5;100.0;102750;;;;
2022/03/20 04:12:00;;;;;;;23.5;19.3;;;;;;;3.5;100.0;102750;;;;
2022/03/20 04:13:00;;;;;;;23.5;19.3;;;;;;;3.5;100.0;102760;;;;
2022/03/20 04:14:00;;;;;;;23.5;19.3;;;;;;;3.5;100.0;102760;;;;
2022/03/20 04:15:02;;;;;;;23.5;19.3;;;;;;;3.5;100.0;102760;;;;
2022/03/20 04:16:00;;;;;;;23.5;19.3;;;;;;;3.5;100.0;102760;;;;
2022/03/20 04:17:00;;;;;;;23.5;19.3;;;;;;;3.6;100.0;102750;;;;
2022/03/20 04:18:01;;;;;;;23.5;19.3;;;;;;;3.6;100.0;102750;;;;
2022/03/20 04:19:00;;;;;;;23.5;19.3;;;;;;;3.5;100.0;102750;;;;
2022/03/20 04:20:01;;;;;;;20.3;18.2;;;;;;;3.5;100.0;102750;;;;
2022/03/20 04:21:00;;;;;;;20.3;18.2;;;;;;;3.5;100.0;102750;;;;
2022/03/20 04:22:00;;;;;;;20.3;18.2;;;;;;;3.5;100.0;102750;;;;
2022/03/20 04:24:00;;;;;;;20.3;18.2;;;;;;;3.4;100.0;102740;;;;
2022/03/20 04:25:00;;;;;;;20.3;18.2;;;;;;;3.4;100.0;102730;;;;
2022/03/20 04:26:00;;;;;;;20.3;18.2;;;;;;;3.4;100.0;102730;;;;
2022/03/20 04:27:00;;;;;;;20.3;18.2;;;;;;;3.4;100.0;102720;;;;
2022/03/20 04:28:00;;;;;;;20.3;18.2;;;;;;;3.4;100.0;102720;;;;
2022/03/20 04:29:00;;;;;;;20.3;18.2;;;;;;;3.3;100.0;102710;;;;
2022/03/20 04:30:00;;;;;;;20.3;18.2;;;;;;;3.3;100.0;102710;;;;
2022/03/20 04:31:00;;;;;;;20.3;18.2;;;;;;;3.2;100.0;102710;;;;
2022/03/20 04:32:00;;;;;;;20.3;18.2;;;;;;;3.2;100.0;102710;;;;
2022/03/20 04:33:00;;;;;;;20.3;18.2;;;;;;;3.3;100.0;102710;;;;
2022/03/20 04:34:00;;;;;;;20.3;18.2;;;;;;;3.3;100.0;102710;;;;
2022/03/20 04:35:00;;;;;;;20.3;18.2;;;;;;;3.2;100.0;102700;;;;
2022/03/20 04:36:00;;;;;;;20.3;18.2;;;;;;;3.2;100.0;102700;;;;
2022/03/20 04:37:04;;;;;;;20.3;18.2;;;;;;;3.2;100.0;102690;;;;
2022/03/20 04:38:01;;;;;;;20.3;18.2;;;;;;;3.2;100.0;102690;;;;
2022/03/20 04:39:00;;;;;;;20.3;18.2;;;;;;;3.2;100.0;102690;;;;
2022/03/20 04:40:00;;;;;;;20.3;18.1;;;;;;;3.2;100.0;102690;;;;
2022/03/20 04:41:00;;;;;;;20.3;18.1;;;;;;;3.2;100.0;102690;;;;
2022/03/20 04:42:00;;;;;;;20.3;18.1;;;;;;;3.2;100.0;102690;;;;
2022/03/20 04:43:00;;;;;;;20.3;18.1;;;;;;;3.3;100.0;102690;;;;
2022/03/20 04:44:00;;;;;;;20.3;18.1;;;;;;;3.3;100.0;102690;;;;
2022/03/20 04:45:00;;;;;;;20.3;18.1;;;;;;;3.3;100.0;102690;;;;
2022/03/20 04:46:00;;;;;;;20.3;18.1;;;;;;;3.3;100.0;102690;;;;
2022/03/20 04:47:00;;;;;;;20.3;18.1;;;;;;;3.3;100.0;102690;;;;
2022/03/20 04:59:00;;;;;;;20.3;18.1;;;;;;;3.4;100.0;102690;;;;
2022/03/20 05:00:00;;;;;;;20.5;17.7;;;;;;;3.4;100.0;102690;;;;
2022/03/20 05:01:00;;;;;;;20.5;17.7;;;;;;;3.3;100.0;102680;;;;
2022/03/20 05:02:00;;;;;;;20.5;17.7;;;;;;;3.3;100.0;102680;;;;
2022/03/20 05:03:00;;;;;;;20.5;17.7;;;;;;;3.3;100.0;102680;;;;
2022/03/20 05:04:00;;;;;;;20.5;17.7;;;;;;;3.3;100.0;102680;;;;
2022/03/20 05:05:00;;;;;;;20.5;17.7;;;;;;;3.4;100.0;102690;;;;
2022/03/20 05:06:00;;;;;;;20.5;17.7;;;;;;;3.4;100.0;102690;;;;
2022/03/20 05:07:00;;;;;;;20.5;17.7;;;;;;;3.4;100.0;102680;;;;
2022/03/20 05:08:00;;;;;;;20.5;17.7;;;;;;;3.4;100.0;102680;;;;
2022/03/20 05:14:00;;;;;;;20.5;17.7;;;;;;;3.4;100.0;102660;;;;
2022/03/20 05:15:00;;;;;;;20.5;17.7;;;;;;;3.4;100.0;102660;;;;
2022/03/20 05:16:00;;;;;;;20.5;17.7;;;;;;;3.4;100.0;102660;;;;
2022/03/20 05:17:02;;;;;;;20.5;17.7;;;;;;;3.4;100.0;102650;;;;
2022/03/20 05:18:00;;;;;;;20.5;17.7;;;;;;;3.4;100.0;102650;;;;
2022/03/20 05:19:00;;;;;;;20.5;17.7;;;;;;;3.4;100.0;102650;;;;
2022/03/20 05:20:00;;;;;;;20.0;17.9;;;;;;;3.4;100.0;102650;;;;
2022/03/20 05:21:00;;;;;;;20.0;17.9;;;;;;;3.5;100.0;102650;;;;
2022/03/20 05:22:01;;;;;;;20.0;17.9;;;;;;;3.5;100.0;102650;;;;
2022/03/20 05:23:00;;;;;;;20.0;17.9;;;;;;;3.5;100.0;102650;;;;
2022/03/20 05:24:00;;;;;;;20.0;17.9;;;;;;;3.5;100.0;102650;;;;
2022/03/20 05:25:01;;;;;;;20.0;17.9;;;;;;;3.5;100.0;102650;;;;
2022/03/20 05:26:00;;;;;;;20.0;17.9;;;;;;;3.5;100.0;102650;;;;
2022/03/20 05:27:00;;;;;;;20.0;17.9;;;;;;;3.6;100.0;102650;;;;
2022/03/20 05:28:00;;;;;;;20.0;17.9;;;;;;;3.6;100.0;102650;;;;
2022/03/20 05:29:00;;;;;;;20.0;17.9;;;;;;;3.6;100.0;102650;;;;
2022/03/20 05:30:00;;;;;;;20.0;17.9;;;;;;;3.6;100.0;102650;;;;
2022/03/20 05:31:00;;;;;;;20.0;17.9;;;;;;;3.7;100.0;102650;;;;
2022/03/20 05:32:02;;;;;;;20.0;17.9;;;;;;;3.7;100.0;102650;;;;
2022/03/20 05:33:00;;;;;;;20.0;17.9;;;;;;;3.7;100.0;102650;;;;
2022/03/20 05:34:02;;;;;;;20.0;17.9;;;;;;;3.7;100.0;102650;;;;
2022/03/20 05:35:00;;;;;;;20.0;17.9;;;;;;;3.8;100.0;102650;;;;
2022/03/20 05:36:00;;;;;;;20.0;17.9;;;;;;;3.8;100.0;102650;;;;
2022/03/20 05:37:00;;;;;;;20.0;17.9;;;;;;;3.8;100.0;102640;;;;
2022/03/20 05:38:00;;;;;;;20.0;17.9;;;;;;;3.8;100.0;102640;;;;
2022/03/20 05:39:01;;;;;;;20.0;17.9;;;;;;;3.7;100.0;102640;;;;
2022/03/20 05:40:03;;;;;;;19.6;17.6;;;;;;;3.7;100.0;102640;;;;
2022/03/20 05:42:00;;;;;;;19.6;17.6;;;;;;;3.8;100.0;102630;;;;
2022/03/20 05:43:00;;;;;;;19.6;17.6;;;;;;;3.7;100.0;102640;;;;
2022/03/20 05:44:00;;;;;;;19.6;17.6;;;;;;;3.7;100.0;102640;;;;
2022/03/20 05:45:02;;;;;;;19.6;17.6;;;;;;;3.7;100.0;102630;;;;
2022/03/20 05:46:00;;;;;;;19.6;17.6;;;;;;;3.7;100.0;102630;;;;
2022/03/20 05:47:00;;;;;;;19.6;17.6;;;;;;;3.7;100.0;102640;;;;
2022/03/20 05:48:00;;;;;;;19.6;17.6;;;;;;;3.7;100.0;102640;;;;
2022/03/20 05:49:00;;;;;;;19.6;17.6;;;;;;;3.8;100.0;102630;;;;
2022/03/20 05:50:01;;;;;;;19.6;17.6;;;;;;;3.8;100.0;102630;;;;
2022/03/20 05:51:00;;;;;;;19.6;17.6;;;;;;;3.7;100.0;102640;;;;
2022/03/20 05:52:00;;;;;;;19.6;17.6;;;;;;;3.7;100.0;102640;;;;
2022/03/20 05:53:00;;;;;;;19.6;17.6;;;;;;;3.7;100.0;102640;;;;
2022/03/20 05:54:01;;;;;;;19.6;17.6;;;;;;;3.7;100.0;102640;;;;
2022/03/20 05:55:01;;;;;;;19.6;17.6;;;;;;;3.8;100.0;102640;;;;
2022/03/20 05:58:03;;;;;;;19.6;17.6;;;;;;;3.8;100.0;102640;;;;
2022/03/20 05:59:00;;;;;;;19.6;17.6;;;;;;;3.7;100.0;102640;;;;
2022/03/20 06:00:00;;;;;;;19.8;17.7;;;;;;;3.7;100.0;102640;;;;
2022/03/20 06:01:00;;;;;;;19.8;17.7;;;;;;;3.7;100.0;102640;;;;
2022/03/20 06:02:00;;;;;;;19.8;17.7;;;;;;;3.7;100.0;102640;;;;
2022/03/20 06:03:01;;;;;;;19.8;17.7;;;;;;;3.7;100.0;102630;;;;
2022/03/20 06:04:00;;;;;;;19.8;17.7;;;;;;;3.7;100.0;102630;;;;
2022/03/20 06:05:00;;;;;;;19.8;17.7;;;;;;;3.5;100.0;102630;;;;
2022/03/20 06:06:00;;;;;;;19.8;17.7;;;;;;;3.5;100.0;102630;;;;
2022/03/20 06:07:00;;;;;;;19.8;17.7;;;;;;;3.5;100.0;102630;;;;
2022/03/20 06:08:00;;;;;;;19.8;17.7;;;;;;;3.5;100.0;102630;;;;
2022/03/20 06:09:00;;;;;;;19.8;17.7;;;;;;;3.6;100.0;102630;;;;
2022/03/20 06:10:00;;;;;;;19.8;17.7;;;;;;;3.6;100.0;102630;;;;
2022/03/20 06:11:00;;;;;;;19.8;17.7;;;;;;;3.7;100.0;102640;;;;
2022/03/20 06:12:02;;;;;;;19.8;17.7;;;;;;;3.7;100.0;102640;;;;
2022/03/20 06:13:03;;;;;;;19.8;17.7;;;;;;;3.7;100.0;102630;;;;
2022/03/20 06:14:00;;;;;;;19.8;17.7;;;;;;;3.7;100.0;102630;;;;
2022/03/20 06:15:00;;;;;;;19.8;17.7;;;;;;;3.7;100.0;102630;;;;
2022/03/20 06:16:00;;;;;;;19.8;17.7;;;;;;;3.7;100.0;102630;;;;
2022/03/20 06:17:00;;;;;;;19.8;17.7;;;;;;;3.7;100.0;102630;;;;
2022/03/20 06:18:03;;;;;;;19.8;17.7;;;;;;;3.7;100.0;102630;;;;
2022/03/20 06:19:00;;;;;;;19.8;17.7;;;;;;;3.8;100.0;102620;;;;
2022/03/20 06:20:00;;;;;;;20.6;17.9;;;;;;;3.8;100.0;102620;;;;
2022/03/20 06:21:00;;;;;;;20.6;17.9;;;;;;;3.8;100.0;102620;;;;
2022/03/20 06:22:00;;;;;;;20.6;17.9;;;;;;;3.8;100.0;102620;;;;
2022/03/20 06:23:00;;;;;;;20.6;17.9;;;;;;;3.8;100.0;102620;;;;
2022/03/20 06:24:00;;;;;;;20.6;17.9;;;;;;;3.8;100.0;102620;;;;
2022/03/20 06:25:02;;;;;;;20.6;17.9;;;;;;;3.8;100.0;102610;;;;
2022/03/20 06:26:00;;;;;;;20.6;17.9;;;;;;;3.8;100.0;102610;;;;
2022/03/20 06:27:00;;;;;;;20.6;17.9;;;;;;;3.8;100.0;102610;;;;
2022/03/20 06:28:01;;;;;;;20.6;17.9;;;;;;;3.8;100.0;102610;;;;
2022/03/20 06:29:00;;;;;;;20.6;17.9;;;;;;;3.8;100.0;102610;;;;
2022/03/20 06:30:00;;;;;;;20.6;17.9;;;;;;;3.8;100.0;102610;;;;
2022/03/20 06:31:10;;;;;;;20.6;17.9;;;;;;;3.8;100.0;102610;;;;
2022/03/20 06:32:00;;;;;;;20.6;17.9;;;;;;;3.8;100.0;102610;;;;
2022/03/20 06:33:03;;;;;;;20.6;17.9;;;;;;;3.8;100.0;102610;;;;
2022/03/20 06:34:00;;;;;;;20.6;17.9;;;;;;;3.8;100.0;102610;;;;
2022/03/20 06:35:00;;;;;;;20.6;17.9;;;;;;;3.8;100.0;102610;;;;
2022/03/20 06:36:01;;;;;;;20.6;17.9;;;;;;;3.8;100.0;102610;;;;
2022/03/20 06:37:00;;;;;;;20.6;17.9;;;;;;;3.8;100.0;102600;;;;
2022/03/20 06:38:00;;;;;;;20.6;17.9;;;;;;;3.8;100.0;102600;;;;
2022/03/20 06:39:00;;;;;;;20.6;17.9;;;;;;;3.8;100.0;102600;;;;
2022/03/20 06:40:00;;;;;;;21.7;18.3;;;;;;;3.8;100.0;102600;;;;
2022/03/20 06:41:00;;;;;;;21.7;18.3;;;;;;;3.9;100.0;102600;;;;
2022/03/20 06:42:00;;;;;;;21.7;18.3;;;;;;;3.9;100.0;102600;;;;
2022/03/20 06:43:00;;;;;;;21.7;18.3;;;;;;;3.9;100.0;102600;;;;
2022/03/20 06:44:01;;;;;;;21.7;18.3;;;;;;;3.9;100.0;102600;;;;
2022/03/20 06:45:00;;;;;;;21.7;18.3;;;;;;;3.9;100.0;102610;;;;
2022/03/20 06:46:10;;;;;;;21.7;18.3;;;;;;;3.9;100.0;102610;;;;